createdAt,value
2017-06-27T00:00:01.867Z,7.97
2017-06-27T00:02:29.958Z,8.77
2017-06-27T00:04:58.110Z,9.02
2017-06-27T00:07:26.337Z,9.25
2017-06-27T00:09:55.154Z,9.68
2017-06-27T00:12:23.245Z,9.55
2017-06-27T00:14:51.423Z,9.93
2017-06-27T00:17:19.478Z,14.63
2017-06-27T00:19:47.602Z,9.10
2017-06-27T00:22:16.429Z,10.07
2017-06-27T00:24:44.537Z,9.68
2017-06-27T00:27:12.586Z,9.68
2017-06-27T00:29:41.409Z,9.57
2017-06-27T00:32:09.565Z,8.57
2017-06-27T00:34:38.046Z,9.15
2017-06-27T00:37:06.109Z,7.85
2017-06-27T00:39:34.166Z,9.65
2017-06-27T00:42:02.669Z,8.85
2017-06-27T00:44:30.730Z,9.20
2017-06-27T00:46:58.831Z,9.77
2017-06-27T00:49:26.989Z,8.65
2017-06-27T00:51:55.171Z,9.57
2017-06-27T00:54:23.225Z,10.18
2017-06-27T00:56:51.413Z,9.30
2017-06-27T00:59:19.509Z,9.40
2017-06-27T01:01:47.558Z,8.77
2017-06-27T01:04:15.724Z,8.98
2017-06-27T01:06:43.794Z,8.98
2017-06-27T01:09:11.881Z,8.77
2017-06-27T01:11:39.933Z,10.73
2017-06-27T01:14:09.353Z,8.38
2017-06-27T01:16:37.835Z,8.65
2017-06-27T01:19:05.890Z,9.90
2017-06-27T01:21:33.942Z,8.95
2017-06-27T01:24:03.153Z,9.10
2017-06-27T01:26:31.210Z,9.15
2017-06-27T01:28:59.281Z,9.68
2017-06-27T01:31:27.337Z,8.55
2017-06-27T01:33:56.793Z,11.50
2017-06-27T01:36:24.769Z,9.00
2017-06-27T01:38:52.933Z,9.10
2017-06-27T01:41:20.989Z,8.73
2017-06-27T01:43:49.090Z,8.60
2017-06-27T01:46:17.161Z,8.07
2017-06-27T01:48:45.217Z,8.90
2017-06-27T01:51:13.281Z,8.88
2017-06-27T01:53:41.465Z,9.50
2017-06-27T01:56:09.524Z,9.35
2017-06-27T01:58:37.606Z,8.93
2017-06-27T02:01:05.784Z,9.13
2017-06-27T02:03:33.846Z,9.40
2017-06-27T02:06:02.314Z,8.38
2017-06-27T02:08:30.810Z,11.63
2017-06-27T02:10:59.267Z,10.95
2017-06-27T02:13:27.366Z,8.93
2017-06-27T02:15:55.460Z,16.60
2017-06-27T02:18:23.514Z,11.98
2017-06-27T02:20:53.096Z,10.00
2017-06-27T02:23:21.199Z,9.93
2017-06-27T02:25:49.274Z,11.10
2017-06-27T02:28:17.458Z,9.65
2017-06-27T02:30:45.539Z,10.23
2017-06-27T02:33:14.362Z,9.90
2017-06-27T02:35:43.299Z,10.13
2017-06-27T02:38:11.359Z,10.05
2017-06-27T02:40:39.422Z,9.63
2017-06-27T02:43:08.980Z,10.93
2017-06-27T02:45:37.350Z,10.48
2017-06-27T02:48:05.908Z,10.18
2017-06-27T02:50:34.495Z,11.27
2017-06-27T02:53:02.566Z,10.07
2017-06-27T02:55:30.639Z,10.15
2017-06-27T02:57:58.815Z,10.98
2017-06-27T03:00:27.258Z,9.93
2017-06-27T03:02:55.362Z,9.70
2017-06-27T03:05:24.590Z,9.65
2017-06-27T03:07:52.667Z,10.98
2017-06-27T03:10:32.764Z,11.60
2017-06-27T03:13:01.243Z,11.60
2017-06-27T03:15:29.314Z,11.43
2017-06-27T03:17:58.566Z,10.10
2017-06-27T03:20:27.754Z,10.18
2017-06-27T03:22:55.805Z,9.85
2017-06-27T03:25:25.437Z,11.30
2017-06-27T03:27:53.511Z,10.57
2017-06-27T03:30:22.383Z,10.48
2017-06-27T03:32:50.566Z,13.05
2017-06-27T03:35:19.377Z,10.07
2017-06-27T03:37:47.465Z,11.98
2017-06-27T03:40:15.590Z,9.93
2017-06-27T03:42:43.723Z,10.77
2017-06-27T03:45:11.788Z,10.40
2017-06-27T03:47:40.614Z,10.80
2017-06-27T03:50:09.486Z,9.88
2017-06-27T03:52:37.622Z,10.55
2017-06-27T03:55:05.738Z,10.52
2017-06-27T03:57:33.850Z,10.93
2017-06-27T04:00:03.274Z,10.10
2017-06-27T04:02:32.030Z,10.00
2017-06-27T04:05:00.091Z,10.02
2017-06-27T04:07:28.158Z,12.10
2017-06-27T04:09:56.270Z,10.18
2017-06-27T04:12:24.435Z,10.38
2017-06-27T04:14:52.968Z,11.48
2017-06-27T04:17:21.948Z,10.43
2017-06-27T04:19:50.068Z,11.15
2017-06-27T04:22:18.213Z,10.98
2017-06-27T04:24:47.410Z,9.65
2017-06-27T04:27:15.506Z,9.80
2017-06-27T04:29:43.645Z,10.13
2017-06-27T04:32:12.537Z,10.65
2017-06-27T04:34:41.960Z,10.38
2017-06-27T04:37:09.954Z,11.27
2017-06-27T04:39:38.532Z,11.23
2017-06-27T04:42:06.600Z,10.45
2017-06-27T04:44:35.106Z,9.63
2017-06-27T04:47:03.206Z,10.25
2017-06-27T04:49:32.060Z,9.50
2017-06-27T04:52:00.531Z,9.73
2017-06-27T04:54:29.418Z,10.13
2017-06-27T04:56:57.917Z,11.50
2017-06-27T04:59:27.666Z,12.35
2017-06-27T05:01:57.123Z,10.90
2017-06-27T05:04:25.200Z,13.60
2017-06-27T05:06:53.367Z,12.60
2017-06-27T05:09:21.544Z,12.20
2017-06-27T05:11:49.693Z,11.77
2017-06-27T05:14:18.604Z,12.05
2017-06-27T05:16:47.434Z,13.65
2017-06-27T05:19:16.292Z,13.00
2017-06-27T05:21:44.445Z,16.15
2017-06-27T05:24:12.506Z,13.45
2017-06-27T05:26:40.990Z,13.70
2017-06-27T05:29:09.474Z,13.10
2017-06-27T05:31:37.547Z,12.43
2017-06-27T05:34:05.661Z,17.98
2017-06-27T05:36:33.789Z,12.50
2017-06-27T05:39:01.858Z,13.50
2017-06-27T05:41:29.927Z,13.10
2017-06-27T05:43:58.039Z,13.05
2017-06-27T05:46:26.218Z,12.20
2017-06-27T05:48:54.309Z,11.73
2017-06-27T05:51:22.374Z,11.73
2017-06-27T05:53:50.468Z,12.57
2017-06-27T05:56:18.542Z,12.57
2017-06-27T05:58:46.605Z,12.57
2017-06-27T06:01:15.469Z,11.60
2017-06-27T06:03:44.339Z,12.50
2017-06-27T06:06:12.407Z,13.07
2017-06-27T06:08:41.840Z,13.82
2017-06-27T06:11:09.834Z,11.50
2017-06-27T06:13:38.666Z,14.45
2017-06-27T06:16:06.755Z,12.25
2017-06-27T06:18:34.846Z,12.88
2017-06-27T06:21:04.142Z,11.77
2017-06-27T06:23:32.206Z,10.90
2017-06-27T06:26:00.274Z,13.05
2017-06-27T06:28:28.358Z,13.45
2017-06-27T06:30:57.235Z,11.30
2017-06-27T06:33:25.307Z,11.48
2017-06-27T06:35:53.381Z,13.45
2017-06-27T06:38:22.833Z,12.15
2017-06-27T06:40:51.193Z,12.45
2017-06-27T06:43:19.338Z,12.13
2017-06-27T06:45:48.171Z,11.02
2017-06-27T06:48:17.001Z,12.18
2017-06-27T06:50:45.090Z,14.70
2017-06-27T06:53:13.181Z,11.82
2017-06-27T06:55:42.618Z,12.02
2017-06-27T06:58:10.618Z,11.30
2017-06-27T07:00:38.709Z,10.52
2017-06-27T07:03:07.217Z,10.13
2017-06-27T07:05:35.765Z,9.20
2017-06-27T07:08:03.898Z,8.95
2017-06-27T07:10:32.826Z,9.50
2017-06-27T07:13:00.886Z,9.20
2017-06-27T07:15:29.375Z,11.93
2017-06-27T07:17:57.442Z,10.23
2017-06-27T07:20:25.919Z,11.23
2017-06-27T07:22:54.414Z,9.55
2017-06-27T07:25:22.908Z,10.52
2017-06-27T07:27:50.980Z,9.10
2017-06-27T07:30:19.462Z,8.88
2017-06-27T07:32:47.521Z,10.43
2017-06-27T07:35:15.582Z,9.55
2017-06-27T07:37:43.671Z,10.68
2017-06-27T07:40:11.731Z,8.30
2017-06-27T07:42:39.830Z,10.15
2017-06-27T07:45:07.878Z,9.50
2017-06-27T07:47:35.935Z,9.02
2017-06-27T07:50:04.014Z,9.10
2017-06-27T07:52:32.069Z,15.00
2017-06-27T07:55:00.130Z,9.05
2017-06-27T07:57:28.974Z,9.73
2017-06-27T07:59:57.478Z,9.10
2017-06-27T08:02:25.545Z,9.98
2017-06-27T08:04:53.618Z,9.45
2017-06-27T08:07:21.694Z,9.02
2017-06-27T08:09:49.762Z,9.88
2017-06-27T08:12:17.862Z,9.35
2017-06-27T08:14:46.723Z,8.82
2017-06-27T08:17:14.815Z,10.18
2017-06-27T08:19:43.674Z,9.43
2017-06-27T08:22:11.723Z,10.10
2017-06-27T08:24:39.794Z,9.05
2017-06-27T08:27:07.883Z,9.25
2017-06-27T08:29:36.735Z,9.52
2017-06-27T08:32:04.791Z,10.52
2017-06-27T08:34:33.654Z,9.35
2017-06-27T08:37:01.714Z,12.90
2017-06-27T08:39:29.815Z,10.27
2017-06-27T08:41:57.878Z,9.60
2017-06-27T08:44:25.970Z,9.32
2017-06-27T08:46:54.799Z,9.25
2017-06-27T08:49:22.858Z,9.77
2017-06-27T08:51:50.947Z,8.45
2017-06-27T08:54:19.397Z,8.85
2017-06-27T08:56:47.492Z,8.85
2017-06-27T08:59:15.574Z,9.57
2017-06-27T09:01:43.627Z,9.43
2017-06-27T09:04:11.715Z,9.20
2017-06-27T09:06:39.775Z,9.98
2017-06-27T09:09:07.850Z,8.57
2017-06-27T09:11:36.382Z,8.90
2017-06-27T09:14:04.439Z,8.98
2017-06-27T09:16:32.498Z,10.20
2017-06-27T09:19:00.604Z,8.20
2017-06-27T09:21:28.662Z,8.52
2017-06-27T09:23:56.754Z,8.55
2017-06-27T09:26:25.594Z,9.82
2017-06-27T09:28:54.038Z,8.65
2017-06-27T09:31:22.114Z,7.07
2017-06-27T09:33:50.170Z,8.60
2017-06-27T09:36:19.022Z,10.73
2017-06-27T09:38:47.523Z,9.25
2017-06-27T09:41:15.582Z,8.32
2017-06-27T09:43:44.031Z,9.02
2017-06-27T09:46:12.114Z,9.02
2017-06-27T09:48:40.173Z,8.15
2017-06-27T09:51:08.255Z,9.02
2017-06-27T09:53:36.369Z,9.27
2017-06-27T09:56:04.410Z,8.55
2017-06-27T09:58:32.532Z,9.77
2017-06-27T10:01:00.991Z,9.52
2017-06-27T10:03:29.442Z,8.65
2017-06-27T10:05:57.532Z,8.57
2017-06-27T10:08:26.390Z,9.25
2017-06-27T10:10:54.867Z,9.23
2017-06-27T10:13:22.928Z,9.45
2017-06-27T10:15:51.378Z,9.55
2017-06-27T10:18:20.230Z,12.30
2017-06-27T10:20:48.313Z,9.15
2017-06-27T10:23:16.467Z,9.65
2017-06-27T10:25:45.275Z,8.80
2017-06-27T10:28:13.335Z,9.35
2017-06-27T10:30:41.448Z,9.93
2017-06-27T10:33:10.302Z,9.20
2017-06-27T10:35:38.363Z,9.13
2017-06-27T10:38:06.818Z,9.30
2017-06-27T10:40:34.934Z,9.57
2017-06-27T10:43:03.001Z,9.70
2017-06-27T10:45:31.065Z,9.73
2017-06-27T10:47:59.192Z,10.55
2017-06-27T10:50:27.643Z,9.73
2017-06-27T10:52:55.725Z,10.35
2017-06-27T10:55:23.839Z,11.68
2017-06-27T10:57:52.341Z,9.90
2017-06-27T11:00:20.379Z,9.68
2017-06-27T11:02:48.503Z,9.52
2017-06-27T11:05:16.571Z,9.95
2017-06-27T11:07:45.410Z,12.70
2017-06-27T11:10:13.488Z,8.82
2017-06-27T11:12:41.541Z,9.70
2017-06-27T11:15:10.399Z,8.98
2017-06-27T11:17:38.459Z,9.52
2017-06-27T11:20:06.519Z,9.52
2017-06-27T11:22:34.596Z,9.65
2017-06-27T11:25:02.680Z,9.20
2017-06-27T11:27:30.762Z,9.35
2017-06-27T11:29:58.818Z,14.13
2017-06-27T11:32:26.882Z,8.00
2017-06-27T11:34:54.958Z,9.10
2017-06-27T11:37:23.018Z,9.27
2017-06-27T11:39:51.074Z,8.57
2017-06-27T11:42:19.146Z,7.45
2017-06-27T11:44:47.606Z,8.05
2017-06-27T11:47:16.511Z,7.15
2017-06-27T11:49:45.306Z,9.00
2017-06-27T11:52:13.371Z,9.73
2017-06-27T11:54:41.514Z,7.80
2017-06-27T11:57:09.966Z,7.40
2017-06-27T11:59:38.053Z,6.97
2017-06-27T12:02:10.251Z,9.68
2017-06-27T12:04:41.200Z,7.28
2017-06-27T12:07:24.406Z,8.00
2017-06-27T12:09:53.230Z,8.00
2017-06-27T12:12:21.325Z,6.68
2017-06-27T12:14:49.382Z,8.80
2017-06-27T12:17:17.438Z,8.68
2017-06-27T12:19:45.526Z,7.90
2017-06-27T12:22:13.582Z,8.82
2017-06-27T12:24:41.645Z,7.35
2017-06-27T12:27:10.495Z,8.43
2017-06-27T12:29:38.559Z,7.75
2017-06-27T12:32:06.642Z,10.13
2017-06-27T12:34:34.726Z,7.43
2017-06-27T12:37:02.822Z,7.90
2017-06-27T12:39:31.258Z,7.05
2017-06-27T12:41:59.350Z,6.45
2017-06-27T12:44:27.422Z,6.35
2017-06-27T12:46:55.559Z,6.57
2017-06-27T12:49:23.635Z,9.10
2017-06-27T12:51:51.707Z,6.10
2017-06-27T12:54:19.783Z,6.20
2017-06-27T12:56:47.927Z,6.60
2017-06-27T12:59:15.966Z,6.12
2017-06-27T13:01:44.431Z,5.70
2017-06-27T13:04:12.515Z,6.03
2017-06-27T13:06:40.972Z,5.60
2017-06-27T13:09:09.030Z,5.35
2017-06-27T13:11:37.142Z,5.30
2017-06-27T13:14:05.962Z,4.47
2017-06-27T13:16:34.020Z,3.90
2017-06-27T13:19:02.872Z,4.40
2017-06-27T13:21:30.927Z,3.78
2017-06-27T13:23:59.375Z,4.28
2017-06-27T13:26:27.446Z,4.07
2017-06-27T13:28:55.530Z,3.90
2017-06-27T13:31:23.610Z,4.07
2017-06-27T13:33:52.063Z,4.45
2017-06-27T13:36:20.119Z,3.65
2017-06-27T13:38:48.959Z,4.60
2017-06-27T13:41:17.059Z,5.47
2017-06-27T13:43:45.134Z,4.65
2017-06-27T13:46:13.275Z,5.07
2017-06-27T13:48:41.354Z,5.43
2017-06-27T13:51:09.431Z,7.50
2017-06-27T13:53:37.482Z,6.28
2017-06-27T13:56:05.958Z,5.10
2017-06-27T13:58:34.014Z,6.05
2017-06-27T14:01:02.478Z,4.85
2017-06-27T14:03:31.327Z,6.07
2017-06-27T14:05:59.414Z,4.70
2017-06-27T14:08:27.470Z,5.05
2017-06-27T14:10:55.531Z,4.78
2017-06-27T14:13:24.386Z,4.93
2017-06-27T14:15:52.470Z,4.25
2017-06-27T14:18:20.612Z,4.50
2017-06-27T14:20:48.666Z,6.03
2017-06-27T14:23:16.737Z,4.82
2017-06-27T14:25:44.881Z,5.68
2017-06-27T14:28:12.991Z,4.72
2017-06-27T14:30:41.054Z,4.70
2017-06-27T14:33:09.506Z,3.70
2017-06-27T14:35:37.599Z,4.18
2017-06-27T14:38:05.657Z,8.25
2017-06-27T14:40:33.710Z,7.57
2017-06-27T14:43:02.562Z,6.57
2017-06-27T14:45:31.395Z,3.70
2017-06-27T14:47:59.459Z,3.05
2017-06-27T14:50:27.979Z,3.65
2017-06-27T14:52:56.450Z,3.55
2017-06-27T14:55:24.525Z,3.33
2017-06-27T14:57:52.645Z,3.37
2017-06-27T15:00:20.755Z,5.05
2017-06-27T15:02:48.819Z,3.12
2017-06-27T15:05:16.898Z,4.85
2017-06-27T15:07:44.954Z,3.72
2017-06-27T15:10:13.012Z,4.05
2017-06-27T15:12:41.107Z,7.05
2017-06-27T15:15:09.571Z,4.47
2017-06-27T15:17:37.651Z,3.72
2017-06-27T15:20:05.786Z,3.70
2017-06-27T15:22:33.843Z,3.97
2017-06-27T15:25:01.907Z,4.62
2017-06-27T15:27:30.023Z,5.18
2017-06-27T15:29:58.082Z,4.05
2017-06-27T15:32:26.904Z,4.03
2017-06-27T15:34:55.006Z,4.55
2017-06-27T15:37:23.062Z,3.90
2017-06-27T15:39:51.128Z,4.40
2017-06-27T15:42:19.603Z,4.68
2017-06-27T15:44:47.655Z,4.62
2017-06-27T15:47:16.109Z,4.53
2017-06-27T15:49:44.194Z,4.65
2017-06-27T15:52:13.020Z,4.45
2017-06-27T15:54:41.466Z,5.25
2017-06-27T15:57:10.322Z,5.82
2017-06-27T15:59:38.377Z,4.37
2017-06-27T16:02:06.437Z,4.03
2017-06-27T16:04:34.528Z,4.57
2017-06-27T16:07:03.347Z,5.43
2017-06-27T16:09:31.406Z,4.78
2017-06-27T16:11:59.478Z,4.50
2017-06-27T16:14:27.538Z,6.10
2017-06-27T16:16:55.632Z,4.90
2017-06-27T16:19:23.686Z,4.68
2017-06-27T16:21:53.250Z,5.10
2017-06-27T16:24:21.348Z,5.93
2017-06-27T16:26:49.402Z,5.28
2017-06-27T16:29:17.462Z,7.18
2017-06-27T16:31:45.992Z,8.73
2017-06-27T16:34:14.455Z,5.40
2017-06-27T16:36:42.507Z,5.93
2017-06-27T16:39:10.592Z,6.03
2017-06-27T16:41:38.642Z,9.07
2017-06-27T16:44:06.719Z,5.82
2017-06-27T16:46:34.794Z,6.25
2017-06-27T16:49:02.850Z,5.85
2017-06-27T16:51:30.906Z,5.25
2017-06-27T16:53:59.384Z,5.32
2017-06-27T16:56:28.210Z,5.40
2017-06-27T16:58:56.283Z,5.82
2017-06-27T17:01:24.490Z,6.40
2017-06-27T17:03:52.568Z,5.10
2017-06-27T17:06:20.714Z,6.50
2017-06-27T17:08:48.810Z,5.15
2017-06-27T17:11:16.968Z,5.07
2017-06-27T17:13:45.063Z,6.50
2017-06-27T17:16:13.207Z,5.30
2017-06-27T17:18:41.262Z,8.65
2017-06-27T17:21:09.759Z,4.75
2017-06-27T17:23:37.846Z,5.37
2017-06-27T17:26:05.902Z,5.15
2017-06-27T17:28:34.086Z,5.00
2017-06-27T17:31:02.894Z,4.68
2017-06-27T17:33:31.718Z,4.53
2017-06-27T17:36:00.539Z,5.40
2017-06-27T17:38:28.726Z,6.80
2017-06-27T17:40:57.552Z,5.10
2017-06-27T17:43:25.618Z,5.10
2017-06-27T17:45:54.099Z,4.93
2017-06-27T17:48:22.580Z,5.55
2017-06-27T17:50:50.638Z,7.85
2017-06-27T17:53:19.504Z,4.57
2017-06-27T17:55:47.567Z,5.37
2017-06-27T17:58:16.010Z,5.32
2017-06-27T18:00:44.960Z,5.53
2017-06-27T18:03:13.022Z,5.70
2017-06-27T18:05:41.112Z,5.82
2017-06-27T18:08:09.575Z,5.30
2017-06-27T18:10:37.626Z,5.82
2017-06-27T18:13:06.133Z,4.90
2017-06-27T18:15:34.226Z,4.70
2017-06-27T18:18:02.384Z,5.30
2017-06-27T18:20:30.474Z,5.12
2017-06-27T18:22:58.651Z,4.93
2017-06-27T18:25:26.751Z,5.50
2017-06-27T18:27:55.612Z,4.18
2017-06-27T18:30:23.777Z,4.25
2017-06-27T18:32:52.822Z,4.55
2017-06-27T18:35:20.951Z,3.60
2017-06-27T18:37:49.046Z,3.45
2017-06-27T18:40:17.111Z,3.37
2017-06-27T18:42:45.171Z,3.45
2017-06-27T18:45:14.766Z,3.20
2017-06-27T18:47:42.847Z,6.10
2017-06-27T18:50:11.283Z,3.47
2017-06-27T18:52:39.422Z,2.95
2017-06-27T18:55:08.262Z,2.40
2017-06-27T18:57:36.343Z,3.45
2017-06-27T19:00:04.822Z,2.65
2017-06-27T19:02:33.281Z,2.50
2017-06-27T19:05:01.355Z,2.47
2017-06-27T19:07:29.427Z,2.83
2017-06-27T19:09:57.879Z,3.45
2017-06-27T19:12:26.755Z,2.85
2017-06-27T19:14:54.842Z,2.22
2017-06-27T19:17:23.661Z,3.12
2017-06-27T19:19:52.491Z,2.40
2017-06-27T19:22:20.578Z,8.02
2017-06-27T19:24:48.641Z,5.80
2017-06-27T19:27:17.100Z,2.70
2017-06-27T19:29:45.222Z,2.75
2017-06-27T19:32:13.675Z,4.65
2017-06-27T19:34:42.503Z,2.72
2017-06-27T19:37:10.974Z,2.12
2017-06-27T19:39:39.798Z,3.75
2017-06-27T19:42:09.408Z,2.50
2017-06-27T19:44:37.477Z,2.70
2017-06-27T19:47:05.539Z,3.10
2017-06-27T19:49:33.623Z,2.80
2017-06-27T19:52:01.682Z,2.55
2017-06-27T19:54:30.936Z,2.60
2017-06-27T19:56:59.442Z,5.93
2017-06-27T19:59:28.271Z,4.00
2017-06-27T20:01:57.513Z,3.42
2017-06-27T20:04:25.624Z,2.92
2017-06-27T20:06:53.675Z,2.53
2017-06-27T20:09:22.522Z,2.90
2017-06-27T20:11:51.935Z,4.72
2017-06-27T20:14:21.427Z,2.95
2017-06-27T20:16:49.486Z,2.87
2017-06-27T20:19:17.555Z,3.20
2017-06-27T20:21:45.730Z,2.85
2017-06-27T20:24:13.817Z,3.10
2017-06-27T20:26:41.864Z,2.78
2017-06-27T20:29:11.511Z,3.65
2017-06-27T20:31:39.687Z,4.37
2017-06-27T20:34:07.750Z,3.30
2017-06-27T20:36:35.842Z,5.55
2017-06-27T20:39:03.929Z,3.65
2017-06-27T20:41:31.966Z,3.40
2017-06-27T20:44:00.050Z,3.85
2017-06-27T20:46:28.137Z,3.50
2017-06-27T20:48:56.213Z,3.45
2017-06-27T20:51:25.038Z,3.55
2017-06-27T20:53:53.140Z,4.43
2017-06-27T20:56:21.210Z,5.72
2017-06-27T20:58:49.366Z,4.47
2017-06-27T21:01:17.566Z,5.20
2017-06-27T21:03:45.784Z,5.03
2017-06-27T21:06:14.610Z,4.18
2017-06-27T21:08:42.694Z,4.30
2017-06-27T21:11:12.947Z,4.60
2017-06-27T21:13:41.050Z,5.10
2017-06-27T21:16:09.134Z,4.60
2017-06-27T21:18:37.194Z,4.68
2017-06-27T21:21:05.295Z,5.80
2017-06-27T21:23:33.471Z,5.07
2017-06-27T21:26:01.539Z,4.50
2017-06-27T21:28:29.648Z,5.03
2017-06-27T21:30:57.786Z,4.53
2017-06-27T21:33:25.856Z,3.85
2017-06-27T21:35:54.055Z,4.18
2017-06-27T21:38:22.117Z,5.62
2017-06-27T21:40:50.274Z,7.78
2017-06-27T21:43:18.355Z,4.25
2017-06-27T21:45:46.555Z,4.62
2017-06-27T21:48:14.698Z,6.20
2017-06-27T21:50:42.767Z,5.03
2017-06-27T21:53:10.866Z,4.47
2017-06-27T21:55:40.362Z,4.28
2017-06-27T21:58:09.479Z,4.30
2017-06-27T22:00:37.623Z,4.78
2017-06-27T22:03:05.747Z,4.60
2017-06-27T22:05:33.812Z,5.00
2017-06-27T22:08:02.655Z,4.60
2017-06-27T22:10:30.732Z,4.30
2017-06-27T22:12:58.791Z,5.05
2017-06-27T22:15:26.846Z,4.43
2017-06-27T22:17:55.021Z,4.35
2017-06-27T22:20:23.215Z,5.12
2017-06-27T22:22:51.278Z,4.32
2017-06-27T22:25:19.358Z,3.95
2017-06-27T22:27:48.199Z,4.00
2017-06-27T22:30:17.155Z,4.75
2017-06-27T22:32:45.230Z,5.05
2017-06-27T22:35:13.395Z,4.30
2017-06-27T22:37:41.487Z,4.18
2017-06-27T22:40:09.638Z,4.62
2017-06-27T22:42:37.720Z,4.43
2017-06-27T22:45:05.823Z,4.93
2017-06-27T22:47:33.918Z,4.85
2017-06-27T22:50:02.095Z,4.05
2017-06-27T22:52:30.150Z,4.43
2017-06-27T22:54:58.245Z,4.20
2017-06-27T22:57:26.347Z,5.07
2017-06-27T22:59:54.418Z,4.82
2017-06-27T23:02:22.470Z,4.70
2017-06-27T23:04:50.661Z,5.10
2017-06-27T23:07:18.812Z,4.93
2017-06-27T23:09:47.634Z,5.30
2017-06-27T23:12:15.710Z,5.45
2017-06-27T23:14:44.164Z,5.95
2017-06-27T23:17:12.219Z,6.22
2017-06-27T23:19:40.299Z,5.70
2017-06-27T23:22:08.376Z,6.12
2017-06-27T23:24:36.447Z,5.43
2017-06-27T23:27:04.522Z,5.70
2017-06-27T23:29:32.595Z,5.65
2017-06-27T23:32:00.659Z,5.18
2017-06-27T23:34:29.511Z,5.28
2017-06-27T23:36:57.568Z,4.85
2017-06-27T23:39:26.396Z,4.85
2017-06-27T23:41:54.470Z,5.50
2017-06-27T23:44:22.526Z,5.12
2017-06-27T23:46:50.590Z,5.65
2017-06-27T23:49:18.674Z,7.10
2017-06-27T23:51:47.862Z,6.80
2017-06-27T23:54:15.918Z,6.45
2017-06-27T23:56:44.005Z,6.28
2017-06-27T23:59:12.079Z,5.40
